createdAt,value
2019-02-27T00:00:21.132Z,73.33
2019-02-27T00:02:50.907Z,73.07
2019-02-27T00:05:20.698Z,72.90
2019-02-27T00:07:51.862Z,73.31
2019-02-27T00:10:22.056Z,72.83
2019-02-27T00:12:52.537Z,72.78
2019-02-27T00:15:22.629Z,72.46
2019-02-27T00:17:52.548Z,73.17
2019-02-27T00:20:22.354Z,73.04
2019-02-27T00:22:52.247Z,73.23
2019-02-27T00:25:22.036Z,73.40
2019-02-27T00:27:51.806Z,73.17
2019-02-27T00:30:21.542Z,72.91
2019-02-27T00:32:51.915Z,72.92
2019-02-27T00:35:21.657Z,72.99
2019-02-27T00:37:52.051Z,72.87
2019-02-27T00:40:22.464Z,73.22
2019-02-27T00:42:54.359Z,72.62
2019-02-27T00:45:23.779Z,72.78
2019-02-27T00:47:53.844Z,72.69
2019-02-27T00:50:23.587Z,73.40
2019-02-27T00:52:53.497Z,73.43
2019-02-27T00:55:23.250Z,73.04
2019-02-27T00:57:54.436Z,72.80
2019-02-27T01:00:24.506Z,72.92
2019-02-27T01:02:54.306Z,73.06
2019-02-27T01:05:24.093Z,73.09
2019-02-27T01:07:54.706Z,72.96
2019-02-27T01:10:24.578Z,73.16
2019-02-27T01:12:57.718Z,73.21
2019-02-27T01:15:25.849Z,73.43
2019-02-27T01:17:57.445Z,73.53
2019-02-27T01:20:27.136Z,73.88
2019-02-27T01:22:56.956Z,73.83
2019-02-27T01:25:26.742Z,73.79
2019-02-27T01:27:56.523Z,73.65
2019-02-27T01:30:26.295Z,73.66
2019-02-27T01:32:56.351Z,73.50
2019-02-27T01:35:26.152Z,73.53
2019-02-27T01:37:55.933Z,73.57
2019-02-27T01:40:25.737Z,73.68
2019-02-27T01:42:55.520Z,73.75
2019-02-27T01:45:25.298Z,73.33
2019-02-27T01:47:55.072Z,73.35
2019-02-27T01:50:30.269Z,73.62
2019-02-27T01:53:00.045Z,73.90
2019-02-27T01:55:29.854Z,73.96
2019-02-27T01:57:59.636Z,73.97
2019-02-27T02:00:29.410Z,74.06
2019-02-27T02:02:59.194Z,73.96
2019-02-27T02:05:28.938Z,73.77
2019-02-27T02:07:59.249Z,73.89
2019-02-27T02:10:29.002Z,74.06
2019-02-27T02:13:01.953Z,73.77
2019-02-27T02:15:37.423Z,73.89
2019-02-27T02:18:31.165Z,73.97
2019-02-27T02:21:07.037Z,74.14
2019-02-27T02:23:55.130Z,74.08
2019-02-27T02:26:44.280Z,73.75
2019-02-27T02:29:33.907Z,73.66
2019-02-27T02:32:09.438Z,73.76
2019-02-27T02:34:57.288Z,73.89
2019-02-27T02:37:33.699Z,73.84
2019-02-27T02:40:19.300Z,73.96
2019-02-27T02:42:54.870Z,73.97
2019-02-27T02:45:32.843Z,74.00
2019-02-27T02:48:17.493Z,74.18
2019-02-27T02:51:00.760Z,74.36
2019-02-27T02:53:48.434Z,73.95
2019-02-27T02:56:29.261Z,73.88
2019-02-27T02:59:35.441Z,73.93
2019-02-27T03:02:23.488Z,73.74
2019-02-27T03:05:06.753Z,74.17
2019-02-27T03:08:11.189Z,74.31
2019-02-27T03:10:44.046Z,74.43
2019-02-27T03:13:32.247Z,75.00
2019-02-27T03:16:05.909Z,75.02
2019-02-27T03:18:57.209Z,75.17
2019-02-27T03:21:35.998Z,75.44
2019-02-27T03:24:18.121Z,74.88
2019-02-27T03:26:59.792Z,74.51
2019-02-27T03:29:51.989Z,74.44
2019-02-27T03:32:43.325Z,74.46
2019-02-27T03:35:27.552Z,74.79
2019-02-27T03:37:58.499Z,74.33
2019-02-27T03:40:49.138Z,74.86
2019-02-27T03:43:36.952Z,74.87
2019-02-27T03:46:42.035Z,77.20
2019-02-27T03:49:30.031Z,77.46
2019-02-27T03:52:37.385Z,74.60
2019-02-27T03:55:43.845Z,74.78
2019-02-27T03:58:48.766Z,74.50
2019-02-27T04:01:54.865Z,74.75
2019-02-27T04:04:44.337Z,74.83
2019-02-27T04:07:31.799Z,74.65
2019-02-27T04:10:00.673Z,74.89
2019-02-27T04:12:30.417Z,74.69
2019-02-27T04:15:00.379Z,75.26
2019-02-27T04:17:29.174Z,74.80
2019-02-27T04:19:58.966Z,74.92
2019-02-27T04:22:28.750Z,75.14
2019-02-27T04:24:58.564Z,75.61
2019-02-27T04:27:28.331Z,75.99
2019-02-27T04:29:58.139Z,76.15
2019-02-27T04:32:27.919Z,75.90
2019-02-27T04:34:57.657Z,75.65
2019-02-27T04:37:27.502Z,76.08
2019-02-27T04:39:57.288Z,75.87
2019-02-27T04:42:27.177Z,76.11
2019-02-27T04:44:58.401Z,76.38
2019-02-27T04:47:29.166Z,76.40
2019-02-27T04:49:59.669Z,76.64
2019-02-27T04:52:29.398Z,76.54
2019-02-27T04:54:59.191Z,76.46
2019-02-27T04:57:30.780Z,76.59
2019-02-27T05:00:00.447Z,76.35
2019-02-27T05:02:30.248Z,76.68
2019-02-27T05:04:59.983Z,76.48
2019-02-27T05:07:29.743Z,76.32
2019-02-27T05:09:59.510Z,76.35
2019-02-27T05:12:29.305Z,76.44
2019-02-27T05:15:00.972Z,76.30
2019-02-27T05:17:30.598Z,76.28
2019-02-27T05:20:00.376Z,76.27
2019-02-27T05:22:30.197Z,75.94
2019-02-27T05:25:02.407Z,75.72
2019-02-27T05:27:32.036Z,75.78
2019-02-27T05:30:01.821Z,75.79
2019-02-27T05:32:31.623Z,75.76
2019-02-27T05:35:01.406Z,75.81
2019-02-27T05:37:31.205Z,75.81
2019-02-27T05:40:00.973Z,75.64
2019-02-27T05:42:30.755Z,75.83
2019-02-27T05:45:00.537Z,75.91
2019-02-27T05:47:30.291Z,75.82
2019-02-27T05:50:00.478Z,75.73
2019-02-27T05:52:31.304Z,75.78
2019-02-27T05:55:01.095Z,75.64
2019-02-27T05:57:31.456Z,75.30
2019-02-27T06:00:02.555Z,75.33
2019-02-27T06:02:32.849Z,75.56
2019-02-27T06:05:02.653Z,75.29
2019-02-27T06:07:33.999Z,75.51
2019-02-27T06:10:04.899Z,75.61
2019-02-27T06:12:34.656Z,75.37
2019-02-27T06:15:06.755Z,75.25
2019-02-27T06:17:43.306Z,75.49
2019-02-27T06:20:08.587Z,75.21
2019-02-27T06:22:38.481Z,74.86
2019-02-27T06:25:13.982Z,75.01
2019-02-27T06:27:43.745Z,74.83
2019-02-27T06:30:18.185Z,74.95
2019-02-27T06:32:47.949Z,75.25
2019-02-27T06:35:17.736Z,75.36
2019-02-27T06:37:50.419Z,75.27
2019-02-27T06:40:19.071Z,75.06
2019-02-27T06:42:53.386Z,75.04
2019-02-27T06:45:20.360Z,75.16
2019-02-27T06:47:50.142Z,75.04
2019-02-27T06:50:19.943Z,75.06
2019-02-27T06:52:49.720Z,75.00
2019-02-27T06:55:19.492Z,75.01
2019-02-27T06:57:49.266Z,74.93
2019-02-27T07:00:22.196Z,74.67
2019-02-27T07:02:55.220Z,74.51
2019-02-27T07:05:23.445Z,74.47
2019-02-27T07:07:53.691Z,74.13
2019-02-27T07:10:23.502Z,74.61
2019-02-27T07:12:54.755Z,74.50
2019-02-27T07:15:24.742Z,74.46
2019-02-27T07:17:54.494Z,74.31
2019-02-27T07:20:25.417Z,74.32
2019-02-27T07:22:55.215Z,74.18
2019-02-27T07:25:25.024Z,74.48
2019-02-27T07:27:54.757Z,74.50
2019-02-27T07:30:24.538Z,74.30
2019-02-27T07:32:54.319Z,74.12
2019-02-27T07:35:26.355Z,74.40
2019-02-27T07:37:55.561Z,74.65
2019-02-27T07:40:25.334Z,74.53
2019-02-27T07:42:55.133Z,74.44
2019-02-27T07:45:24.912Z,74.57
2019-02-27T07:47:54.727Z,74.50
2019-02-27T07:50:24.517Z,73.91
2019-02-27T07:52:54.282Z,74.03
2019-02-27T07:55:28.400Z,73.51
2019-02-27T07:57:58.680Z,73.44
2019-02-27T08:00:28.392Z,73.67
2019-02-27T08:02:58.208Z,73.16
2019-02-27T08:05:29.104Z,73.24
2019-02-27T08:07:59.122Z,73.32
2019-02-27T08:10:28.891Z,73.35
2019-02-27T08:12:58.667Z,73.23
2019-02-27T08:15:28.453Z,73.37
2019-02-27T08:18:00.721Z,73.32
2019-02-27T08:20:30.529Z,73.07
2019-02-27T08:23:00.378Z,73.14
2019-02-27T08:25:30.169Z,73.31
2019-02-27T08:28:01.484Z,73.17
2019-02-27T08:30:31.290Z,73.60
2019-02-27T08:33:01.038Z,73.20
2019-02-27T08:35:30.836Z,72.82
2019-02-27T08:38:02.805Z,72.90
2019-02-27T08:40:32.076Z,72.78
2019-02-27T08:43:01.837Z,72.40
2019-02-27T08:45:31.612Z,72.25
2019-02-27T08:48:01.389Z,71.93
2019-02-27T08:50:32.279Z,71.83
2019-02-27T08:53:02.201Z,71.59
2019-02-27T08:55:31.934Z,71.03
2019-02-27T08:58:01.707Z,70.96
2019-02-27T09:00:33.245Z,71.49
2019-02-27T09:03:03.729Z,71.27
2019-02-27T09:05:33.705Z,72.01
2019-02-27T09:08:03.682Z,71.74
2019-02-27T09:10:33.460Z,72.42
2019-02-27T09:13:05.844Z,72.49
2019-02-27T09:15:34.709Z,72.50
2019-02-27T09:18:04.851Z,72.65
2019-02-27T09:20:34.657Z,73.05
2019-02-27T09:23:04.395Z,73.17
2019-02-27T09:25:34.176Z,73.70
2019-02-27T09:28:08.778Z,73.69
2019-02-27T09:30:35.400Z,74.12
2019-02-27T09:33:05.217Z,74.43
2019-02-27T09:35:38.465Z,74.65
2019-02-27T09:38:08.045Z,74.82
2019-02-27T09:40:38.841Z,74.96
2019-02-27T09:43:09.868Z,75.35
2019-02-27T09:45:39.670Z,75.45
2019-02-27T09:48:10.438Z,74.92
2019-02-27T09:50:45.234Z,74.35
2019-02-27T09:53:13.910Z,74.61
2019-02-27T09:55:43.644Z,74.31
2019-02-27T09:58:13.417Z,74.25
2019-02-27T10:00:45.511Z,74.05
2019-02-27T10:03:20.065Z,74.18
2019-02-27T10:05:47.806Z,74.41
2019-02-27T10:08:17.749Z,74.30
2019-02-27T10:10:47.529Z,74.10
2019-02-27T10:13:17.430Z,74.33
2019-02-27T10:15:47.208Z,74.52
2019-02-27T10:18:18.950Z,74.71
2019-02-27T10:20:48.449Z,74.41
2019-02-27T10:23:18.236Z,74.09
2019-02-27T10:25:49.848Z,73.98
2019-02-27T10:28:19.517Z,74.13
2019-02-27T10:30:49.909Z,73.76
2019-02-27T10:33:20.510Z,73.43
2019-02-27T10:35:50.308Z,73.44
2019-02-27T10:38:20.296Z,73.62
2019-02-27T10:40:50.123Z,73.72
2019-02-27T10:43:21.140Z,74.08
2019-02-27T10:45:51.100Z,73.91
2019-02-27T10:48:20.870Z,73.99
2019-02-27T10:50:50.646Z,73.83
2019-02-27T10:53:20.426Z,73.92
2019-02-27T10:55:50.362Z,73.71
2019-02-27T10:58:20.162Z,73.48
2019-02-27T11:00:50.484Z,73.75
2019-02-27T11:03:20.266Z,73.47
2019-02-27T11:05:54.039Z,73.18
2019-02-27T11:08:21.520Z,73.27
2019-02-27T11:10:51.257Z,72.73
2019-02-27T11:13:21.085Z,72.63
2019-02-27T11:15:50.882Z,72.62
2019-02-27T11:18:20.710Z,73.05
2019-02-27T11:20:50.597Z,72.78
2019-02-27T11:23:20.379Z,72.49
2019-02-27T11:25:50.180Z,72.63
2019-02-27T11:28:19.893Z,72.65
2019-02-27T11:30:51.060Z,72.76
2019-02-27T11:33:25.499Z,72.81
2019-02-27T11:35:52.628Z,72.46
2019-02-27T11:38:24.827Z,72.61
2019-02-27T11:40:53.871Z,72.67
2019-02-27T11:43:23.619Z,72.85
2019-02-27T11:45:57.717Z,73.04
2019-02-27T11:48:24.986Z,72.66
2019-02-27T11:50:54.799Z,72.75
2019-02-27T11:53:24.574Z,72.87
2019-02-27T11:55:54.343Z,72.89
2019-02-27T11:58:24.115Z,73.06
2019-02-27T12:00:54.322Z,73.14
2019-02-27T12:03:24.108Z,72.76
2019-02-27T12:05:53.847Z,73.02
2019-02-27T12:08:25.937Z,73.05
2019-02-27T12:10:55.113Z,73.08
2019-02-27T12:13:24.855Z,73.39
2019-02-27T12:15:54.664Z,73.47
2019-02-27T12:18:24.421Z,73.56
2019-02-27T12:20:54.231Z,73.66
2019-02-27T12:23:23.978Z,73.35
2019-02-27T12:25:53.754Z,73.23
2019-02-27T12:28:24.220Z,73.00
2019-02-27T12:30:53.962Z,72.61
2019-02-27T12:33:23.775Z,72.39
2019-02-27T12:35:53.517Z,72.41
2019-02-27T12:38:23.312Z,72.30
2019-02-27T12:40:53.056Z,72.21
2019-02-27T12:43:22.833Z,71.71
2019-02-27T12:45:52.607Z,71.63
2019-02-27T12:48:22.376Z,71.43
2019-02-27T12:50:52.163Z,71.89
2019-02-27T12:53:21.918Z,71.56
2019-02-27T12:55:53.150Z,71.58
2019-02-27T12:58:25.247Z,71.51
2019-02-27T13:00:55.619Z,71.59
2019-02-27T13:03:25.353Z,71.68
2019-02-27T13:05:55.144Z,71.22
2019-02-27T13:08:24.877Z,71.32
2019-02-27T13:10:54.685Z,71.14
2019-02-27T13:13:25.925Z,71.16
2019-02-27T13:15:55.929Z,71.12
2019-02-27T13:18:25.669Z,71.14
2019-02-27T13:20:55.441Z,70.97
2019-02-27T13:23:25.223Z,71.24
2019-02-27T13:25:57.473Z,71.18
2019-02-27T13:28:26.470Z,71.18
2019-02-27T13:30:56.223Z,71.24
2019-02-27T13:33:26.026Z,71.19
2019-02-27T13:35:56.748Z,71.00
2019-02-27T13:38:27.257Z,70.77
2019-02-27T13:40:57.001Z,70.90
2019-02-27T13:43:27.176Z,70.85
2019-02-27T13:45:57.543Z,70.66
2019-02-27T13:48:27.342Z,70.37
2019-02-27T13:50:59.246Z,70.55
2019-02-27T13:53:28.566Z,70.39
2019-02-27T13:55:58.374Z,70.55
2019-02-27T13:58:28.137Z,70.31
2019-02-27T14:00:58.226Z,69.93
2019-02-27T14:03:28.024Z,70.06
2019-02-27T14:05:57.767Z,69.87
2019-02-27T14:08:31.709Z,69.91
2019-02-27T14:11:00.111Z,69.78
2019-02-27T14:13:30.862Z,69.71
2019-02-27T14:16:01.513Z,69.81
2019-02-27T14:18:31.464Z,69.90
2019-02-27T14:21:01.778Z,69.81
2019-02-27T14:23:32.228Z,69.90
2019-02-27T14:26:05.566Z,69.63
2019-02-27T14:28:33.472Z,70.01
2019-02-27T14:31:03.224Z,70.02
2019-02-27T14:33:33.018Z,69.96
2019-02-27T14:36:02.804Z,69.88
2019-02-27T14:38:32.556Z,69.90
2019-02-27T14:41:02.371Z,69.78
2019-02-27T14:43:32.127Z,69.80
2019-02-27T14:46:01.871Z,69.69
2019-02-27T14:48:31.690Z,70.01
2019-02-27T14:51:01.471Z,69.99
2019-02-27T14:53:31.275Z,69.78
2019-02-27T14:56:01.045Z,69.67
2019-02-27T14:58:30.792Z,69.50
2019-02-27T15:01:00.762Z,69.39
2019-02-27T15:03:30.498Z,69.29
2019-02-27T15:06:00.301Z,69.26
2019-02-27T15:08:30.069Z,68.92
2019-02-27T15:10:59.836Z,69.00
2019-02-27T15:13:29.623Z,68.57
2019-02-27T15:15:59.433Z,68.75
2019-02-27T15:18:29.209Z,68.45
2019-02-27T15:20:59.024Z,68.53
2019-02-27T15:23:28.799Z,68.57
2019-02-27T15:25:58.588Z,68.45
2019-02-27T15:28:33.039Z,68.51
2019-02-27T15:30:59.823Z,68.40
2019-02-27T15:33:29.653Z,68.17
2019-02-27T15:35:59.493Z,68.14
2019-02-27T15:38:29.318Z,68.09
2019-02-27T15:41:02.379Z,68.28
2019-02-27T15:43:30.603Z,68.41
2019-02-27T15:46:00.350Z,68.38
2019-02-27T15:48:30.178Z,68.03
2019-02-27T15:51:00.023Z,68.15
2019-02-27T15:53:29.832Z,68.06
2019-02-27T15:55:59.625Z,68.21
2019-02-27T15:58:29.472Z,68.20
2019-02-27T16:00:59.241Z,68.18
2019-02-27T16:03:29.017Z,68.27
2019-02-27T16:05:58.813Z,68.64
2019-02-27T16:08:28.582Z,68.41
2019-02-27T16:10:58.423Z,68.87
2019-02-27T16:13:28.169Z,68.96
2019-02-27T16:16:00.251Z,69.31
2019-02-27T16:18:29.986Z,69.43
2019-02-27T16:20:59.771Z,69.67
2019-02-27T16:23:29.571Z,69.74
2019-02-27T16:25:59.339Z,69.82
2019-02-27T16:28:29.137Z,70.24
2019-02-27T16:30:58.891Z,70.30
2019-02-27T16:47:28.644Z,70.95
2019-02-27T16:59:47.074Z,70.85
2019-02-27T17:32:31.307Z,71.33
2019-02-27T17:59:43.800Z,71.45
2019-02-27T18:09:03.069Z,71.61
2019-02-27T19:04:00.332Z,71.06
2019-02-27T19:06:31.606Z,71.01
2019-02-27T19:09:02.795Z,71.29
2019-02-27T19:11:38.446Z,71.14
2019-02-27T19:14:10.923Z,70.97
2019-02-27T19:55:40.414Z,70.11
2019-02-27T20:10:56.241Z,69.99
2019-02-27T20:20:12.963Z,70.10
2019-02-27T20:53:58.906Z,67.06
2019-02-27T21:34:55.153Z,66.13
2019-02-27T21:37:33.414Z,67.09
2019-02-27T21:40:36.965Z,66.73
2019-02-27T21:43:09.431Z,67.06
2019-02-27T21:54:44.793Z,66.78
2019-02-27T21:57:15.468Z,66.94
2019-02-27T21:59:45.227Z,67.09
2019-02-27T22:02:15.111Z,67.21
2019-02-27T22:04:44.845Z,66.95
2019-02-27T22:07:14.622Z,67.22
2019-02-27T22:09:45.494Z,67.09
2019-02-27T22:12:15.306Z,67.09
2019-02-27T22:14:45.044Z,66.80
2019-02-27T22:17:14.836Z,66.53
2019-02-27T22:19:44.567Z,66.75
2019-02-27T22:22:14.341Z,66.60
2019-02-27T22:24:44.106Z,66.91
2019-02-27T22:27:13.844Z,66.69
2019-02-27T22:29:43.615Z,66.94
2019-02-27T22:32:14.662Z,67.16
2019-02-27T22:34:44.839Z,67.20
2019-02-27T22:37:17.493Z,67.68
2019-02-27T22:39:46.059Z,67.56
2019-02-27T22:42:15.818Z,68.09
2019-02-27T22:44:45.587Z,68.18
2019-02-27T22:47:15.342Z,67.75
2019-02-27T22:49:45.115Z,67.86
2019-02-27T22:52:15.160Z,67.87
2019-02-27T22:54:44.927Z,67.95
2019-02-27T22:57:14.659Z,67.92
2019-02-27T22:59:44.424Z,68.00
2019-02-27T23:02:14.166Z,67.97
2019-02-27T23:04:43.928Z,67.41
2019-02-27T23:07:13.661Z,67.58
2019-02-27T23:09:43.431Z,67.25
2019-02-27T23:12:13.167Z,67.09
2019-02-27T23:14:42.928Z,67.00
2019-02-27T23:17:12.666Z,66.45
2019-02-27T23:19:46.067Z,66.50
2019-02-27T23:22:13.853Z,66.74
2019-02-27T23:24:43.981Z,66.81
2019-02-27T23:27:14.342Z,66.17
2019-02-27T23:29:44.112Z,66.59
2019-02-27T23:32:13.849Z,66.82
2019-02-27T23:34:43.606Z,66.56
2019-02-27T23:37:13.345Z,66.49
2019-02-27T23:39:43.664Z,66.25
2019-02-27T23:42:13.627Z,65.86
2019-02-27T23:44:43.399Z,65.77
2019-02-27T23:47:13.141Z,65.52
2019-02-27T23:49:42.909Z,65.88
2019-02-27T23:52:12.649Z,65.58
2019-02-27T23:54:42.426Z,65.42
2019-02-27T23:57:12.158Z,65.41
2019-02-27T23:59:41.924Z,65.22
